createdAt,value
2023-01-18T00:00:34.193Z,58.43
2023-01-18T00:03:02.699Z,49.47
2023-01-18T00:05:31.006Z,49.53
2023-01-18T00:07:59.325Z,47.73
2023-01-18T00:10:29.076Z,44.60
2023-01-18T00:12:57.763Z,48.53
2023-01-18T00:15:26.198Z,43.73
2023-01-18T00:17:54.411Z,42.80
2023-01-18T00:20:23.438Z,39.37
2023-01-18T00:22:51.770Z,38.27
2023-01-18T00:25:20.597Z,34.67
2023-01-18T00:27:50.873Z,36.87
2023-01-18T00:30:20.791Z,41.87
2023-01-18T00:32:49.066Z,38.87
2023-01-18T00:35:17.565Z,40.63
2023-01-18T00:37:46.391Z,34.93
2023-01-18T00:40:14.797Z,33.27
2023-01-18T00:43:00.271Z,34.83
2023-01-18T00:45:30.190Z,28.97
2023-01-18T00:47:58.484Z,30.23
2023-01-18T00:50:26.804Z,23.13
2023-01-18T00:52:57.743Z,24.43
2023-01-18T00:55:26.542Z,24.27
2023-01-18T00:57:54.867Z,28.30
2023-01-18T01:00:26.908Z,25.00
2023-01-18T01:02:56.925Z,25.03
2023-01-18T01:05:44.195Z,26.13
2023-01-18T01:08:17.010Z,22.23
2023-01-18T01:10:46.384Z,22.77
2023-01-18T01:13:32.052Z,26.93
2023-01-18T01:16:17.670Z,26.00
2023-01-18T01:19:04.888Z,27.47
2023-01-18T01:21:50.133Z,30.33
2023-01-18T01:24:35.857Z,28.47
2023-01-18T01:27:04.223Z,27.77
2023-01-18T01:29:32.509Z,31.80
2023-01-18T01:32:00.765Z,26.03
2023-01-18T01:34:30.815Z,30.40
2023-01-18T01:36:59.054Z,26.63
2023-01-18T01:39:27.376Z,26.50
2023-01-18T01:41:55.602Z,21.23
2023-01-18T01:44:50.235Z,18.77
2023-01-18T01:47:27.190Z,16.60
2023-01-18T01:49:58.815Z,19.30
2023-01-18T01:52:29.117Z,17.50
2023-01-18T01:54:59.488Z,16.53
2023-01-18T01:57:28.327Z,16.80
2023-01-18T01:59:59.071Z,16.20
2023-01-18T02:02:27.441Z,17.07
2023-01-18T02:04:57.157Z,19.87
2023-01-18T02:07:26.356Z,18.17
2023-01-18T02:09:54.689Z,16.50
2023-01-18T02:12:23.167Z,21.87
2023-01-18T02:14:51.465Z,18.03
2023-01-18T02:17:31.733Z,18.70
2023-01-18T02:20:37.911Z,18.73
2023-01-18T02:23:35.432Z,20.40
2023-01-18T02:26:44.956Z,19.73
2023-01-18T02:29:17.655Z,19.80
2023-01-18T02:31:58.192Z,19.03
2023-01-18T02:34:31.670Z,18.30
2023-01-18T02:37:05.473Z,20.17
2023-01-18T02:39:38.419Z,17.23
2023-01-18T02:42:28.333Z,19.40
2023-01-18T02:45:15.830Z,17.90
2023-01-18T02:47:44.075Z,19.30
2023-01-18T02:50:12.690Z,17.80
2023-01-18T02:52:42.125Z,16.13
2023-01-18T02:55:13.417Z,20.17
2023-01-18T02:57:41.685Z,17.40
2023-01-18T03:00:12.954Z,18.47
2023-01-18T03:02:41.227Z,17.80
2023-01-18T03:05:10.639Z,17.57
2023-01-18T03:07:42.835Z,20.03
2023-01-18T03:10:12.465Z,17.93
2023-01-18T03:12:47.185Z,19.57
2023-01-18T03:15:20.542Z,18.70
2023-01-18T03:17:51.629Z,17.43
2023-01-18T03:20:25.695Z,18.63
2023-01-18T03:23:28.708Z,19.80
2023-01-18T03:25:58.279Z,21.90
2023-01-18T03:28:46.146Z,21.70
2023-01-18T03:31:34.869Z,22.83
2023-01-18T03:34:05.599Z,22.43
2023-01-18T03:36:34.647Z,26.60
2023-01-18T03:39:03.726Z,23.33
2023-01-18T03:41:33.592Z,25.93
2023-01-18T03:44:03.890Z,25.67
2023-01-18T03:46:33.824Z,26.27
2023-01-18T03:49:02.070Z,30.30
2023-01-18T03:51:40.906Z,25.10
2023-01-18T03:54:12.547Z,26.83
2023-01-18T03:56:44.005Z,28.33
2023-01-18T03:59:12.222Z,27.00
2023-01-18T04:01:44.503Z,26.93
2023-01-18T04:04:12.818Z,27.17
2023-01-18T04:06:41.335Z,27.33
2023-01-18T04:09:09.610Z,30.60
2023-01-18T04:11:38.006Z,29.00
2023-01-18T04:14:06.281Z,27.40
2023-01-18T04:16:34.544Z,27.93
2023-01-18T04:19:04.362Z,28.40
2023-01-18T04:21:32.631Z,27.63
2023-01-18T04:24:00.900Z,28.07
2023-01-18T04:26:30.050Z,28.77
2023-01-18T04:28:58.347Z,28.93
2023-01-18T04:31:26.980Z,27.40
2023-01-18T04:33:55.340Z,25.17
2023-01-18T04:36:25.086Z,24.90
2023-01-18T04:38:56.490Z,26.80
2023-01-18T04:41:24.968Z,26.70
2023-01-18T04:43:53.268Z,32.20
2023-01-18T04:46:21.654Z,27.40
2023-01-18T04:48:52.721Z,27.80
2023-01-18T04:51:20.999Z,23.93
2023-01-18T04:53:50.623Z,28.50
2023-01-18T04:56:18.908Z,27.17
2023-01-18T04:58:47.395Z,28.90
2023-01-18T05:01:17.241Z,25.73
2023-01-18T05:03:45.763Z,25.87
2023-01-18T05:06:15.211Z,30.43
2023-01-18T05:08:43.662Z,26.63
2023-01-18T05:11:14.586Z,26.60
2023-01-18T05:13:43.043Z,25.27
2023-01-18T05:16:14.904Z,25.20
2023-01-18T05:18:43.188Z,25.60
2023-01-18T05:21:11.478Z,23.67
2023-01-18T05:23:40.292Z,22.93
2023-01-18T05:26:14.548Z,27.40
2023-01-18T05:28:44.766Z,25.40
2023-01-18T05:31:13.865Z,27.23
2023-01-18T05:33:42.149Z,26.93
2023-01-18T05:36:10.542Z,27.47
2023-01-18T05:38:38.837Z,24.90
2023-01-18T05:41:07.356Z,24.70
2023-01-18T05:43:35.835Z,26.13
2023-01-18T05:46:06.273Z,27.80
2023-01-18T05:48:34.811Z,26.23
2023-01-18T05:51:08.630Z,28.67
2023-01-18T05:53:37.011Z,27.27
2023-01-18T05:56:06.345Z,24.97
2023-01-18T05:58:34.611Z,24.27
2023-01-18T06:01:02.919Z,28.97
2023-01-18T06:03:32.583Z,29.17
2023-01-18T06:06:01.882Z,23.63
2023-01-18T06:08:30.346Z,24.47
2023-01-18T06:11:00.130Z,20.33
2023-01-18T06:13:29.771Z,24.13
2023-01-18T06:15:58.259Z,18.47
2023-01-18T06:18:27.105Z,15.33
2023-01-18T06:20:59.117Z,16.90
2023-01-18T06:23:28.684Z,14.47
2023-01-18T06:25:56.963Z,12.37
2023-01-18T06:28:25.213Z,15.57
2023-01-18T06:30:53.974Z,12.00
2023-01-18T06:33:22.333Z,11.50
2023-01-18T06:35:50.610Z,12.00
2023-01-18T06:38:20.793Z,14.20
2023-01-18T06:40:49.046Z,11.53
2023-01-18T06:43:17.272Z,12.03
2023-01-18T06:45:46.286Z,12.17
2023-01-18T06:48:14.585Z,12.57
2023-01-18T06:50:42.807Z,11.87
2023-01-18T06:53:11.065Z,13.77
2023-01-18T06:55:41.120Z,16.03
2023-01-18T06:58:09.842Z,17.83
2023-01-18T07:00:38.870Z,18.63
2023-01-18T07:03:09.182Z,15.97
2023-01-18T07:05:37.456Z,21.43
2023-01-18T07:08:06.180Z,13.43
2023-01-18T07:10:34.554Z,17.43
2023-01-18T07:13:04.194Z,15.87
2023-01-18T07:15:32.548Z,15.30
2023-01-18T07:18:00.792Z,17.63
2023-01-18T07:20:29.509Z,14.27
2023-01-18T07:22:58.992Z,13.37
2023-01-18T07:25:27.714Z,14.50
2023-01-18T07:27:57.599Z,15.53
2023-01-18T07:30:27.313Z,17.50
2023-01-18T07:32:55.570Z,14.40
2023-01-18T07:35:23.976Z,14.87
2023-01-18T07:37:52.677Z,16.57
2023-01-18T07:40:21.956Z,20.43
2023-01-18T07:42:50.270Z,21.33
2023-01-18T07:45:19.039Z,16.53
2023-01-18T07:47:50.241Z,22.70
2023-01-18T07:50:18.931Z,22.63
2023-01-18T07:52:47.200Z,24.63
2023-01-18T07:55:15.643Z,24.90
2023-01-18T07:57:44.087Z,23.10
2023-01-18T08:00:14.998Z,25.70
2023-01-18T08:02:43.281Z,26.70
2023-01-18T08:05:13.162Z,21.37
2023-01-18T08:07:41.464Z,17.27
2023-01-18T08:10:11.266Z,15.43
2023-01-18T08:12:39.559Z,21.23
2023-01-18T08:15:09.039Z,22.37
2023-01-18T08:17:37.588Z,17.47
2023-01-18T08:20:06.357Z,19.83
2023-01-18T08:22:36.230Z,19.47
2023-01-18T08:25:04.505Z,18.50
2023-01-18T08:27:32.775Z,17.67
2023-01-18T08:30:01.123Z,19.10
2023-01-18T08:32:29.850Z,16.50
2023-01-18T08:34:58.140Z,18.63
2023-01-18T08:37:26.420Z,15.53
2023-01-18T08:39:56.104Z,20.03
2023-01-18T08:42:24.619Z,16.67
2023-01-18T08:44:53.824Z,15.20
2023-01-18T08:47:22.099Z,22.03
2023-01-18T08:49:50.400Z,25.90
2023-01-18T08:52:18.672Z,27.23
2023-01-18T08:54:46.965Z,23.50
2023-01-18T08:57:17.100Z,25.07
2023-01-18T08:59:45.466Z,22.37
2023-01-18T09:02:13.765Z,20.23
2023-01-18T09:04:42.436Z,22.53
2023-01-18T09:07:10.713Z,17.40
2023-01-18T09:09:39.187Z,18.93
2023-01-18T09:12:07.498Z,24.07
2023-01-18T09:14:37.590Z,23.20
2023-01-18T09:17:05.868Z,21.63
2023-01-18T09:19:34.180Z,17.50
2023-01-18T09:22:03.675Z,19.43
2023-01-18T09:24:31.950Z,17.87
2023-01-18T09:27:00.210Z,19.63
2023-01-18T09:29:28.493Z,20.17
2023-01-18T09:31:58.398Z,20.10
2023-01-18T09:34:26.797Z,25.33
2023-01-18T09:36:55.040Z,23.40
2023-01-18T09:39:23.715Z,24.50
2023-01-18T09:41:53.729Z,21.87
2023-01-18T09:44:24.895Z,22.47
2023-01-18T09:46:55.221Z,20.23
2023-01-18T09:49:26.998Z,24.77
2023-01-18T09:51:59.745Z,25.73
2023-01-18T09:54:33.999Z,23.47
2023-01-18T09:57:05.875Z,25.00
2023-01-18T09:59:35.641Z,25.37
2023-01-18T10:02:04.314Z,27.00
2023-01-18T10:04:37.064Z,27.10
2023-01-18T10:07:07.007Z,28.07
2023-01-18T10:09:37.491Z,27.27
2023-01-18T10:12:08.230Z,29.90
2023-01-18T10:14:45.889Z,31.30
2023-01-18T10:17:17.811Z,28.80
2023-01-18T10:19:47.545Z,29.40
2023-01-18T10:22:19.995Z,33.47
2023-01-18T10:24:57.623Z,35.60
2023-01-18T10:27:40.943Z,29.90
2023-01-18T10:30:18.693Z,32.63
2023-01-18T10:32:49.732Z,42.10
2023-01-18T10:35:28.263Z,59.17
2023-01-18T10:37:57.690Z,43.20
2023-01-18T10:40:26.219Z,55.23
2023-01-18T10:42:56.818Z,46.90
2023-01-18T10:45:26.836Z,66.53
2023-01-18T10:47:55.818Z,61.00
2023-01-18T10:50:35.484Z,48.30
2023-01-18T10:53:20.712Z,44.73
2023-01-18T10:55:54.059Z,53.83
2023-01-18T10:58:26.329Z,63.57
2023-01-18T11:00:55.027Z,78.77
2023-01-18T11:03:23.821Z,33.23
2023-01-18T11:05:53.646Z,51.70
2023-01-18T11:08:25.605Z,57.33
2023-01-18T11:10:59.866Z,41.13
2023-01-18T11:13:29.087Z,34.90
2023-01-18T11:16:10.256Z,40.00
2023-01-18T11:18:38.522Z,37.87
2023-01-18T11:21:12.424Z,36.47
2023-01-18T11:23:42.528Z,33.50
2023-01-18T11:26:15.322Z,35.03
2023-01-18T11:28:47.034Z,31.53
2023-01-18T11:31:15.846Z,34.53
2023-01-18T11:33:51.191Z,32.53
2023-01-18T11:36:21.312Z,32.33
2023-01-18T11:38:49.736Z,31.03
2023-01-18T11:41:20.168Z,28.23
2023-01-18T11:44:03.529Z,29.67
2023-01-18T11:46:41.418Z,34.80
2023-01-18T11:49:25.706Z,30.57
2023-01-18T11:51:57.798Z,37.87
2023-01-18T11:54:29.080Z,36.80
2023-01-18T11:56:59.749Z,32.20
2023-01-18T11:59:31.173Z,36.10
2023-01-18T12:02:31.609Z,37.20
2023-01-18T12:05:22.544Z,41.93
2023-01-18T12:07:56.178Z,42.03
2023-01-18T12:10:25.279Z,37.37
2023-01-18T12:13:07.867Z,39.37
2023-01-18T12:15:55.018Z,41.60
2023-01-18T12:18:31.668Z,38.90
2023-01-18T12:21:01.927Z,42.33
2023-01-18T12:24:04.298Z,47.77
2023-01-18T12:26:39.491Z,47.00
2023-01-18T12:29:24.253Z,47.10
2023-01-18T12:32:00.429Z,44.47
2023-01-18T12:34:31.441Z,49.50
2023-01-18T12:37:14.599Z,50.47
2023-01-18T12:39:54.620Z,45.97
2023-01-18T12:42:28.493Z,48.17
2023-01-18T12:45:05.120Z,50.63
2023-01-18T12:47:36.270Z,47.13
2023-01-18T12:50:08.749Z,46.27
2023-01-18T12:52:40.798Z,48.77
2023-01-18T12:55:16.549Z,48.67
2023-01-18T12:57:46.595Z,44.47
2023-01-18T13:00:18.113Z,43.17
2023-01-18T13:02:48.265Z,45.47
2023-01-18T13:05:20.248Z,47.53
2023-01-18T13:07:49.935Z,43.57
2023-01-18T13:10:21.499Z,42.67
2023-01-18T13:12:50.397Z,42.87
2023-01-18T13:15:24.828Z,39.47
2023-01-18T13:17:57.268Z,44.77
2023-01-18T13:20:30.027Z,40.90
2023-01-18T13:23:03.624Z,39.50
2023-01-18T13:25:41.815Z,38.77
2023-01-18T13:28:18.138Z,43.13
2023-01-18T13:30:53.161Z,42.83
2023-01-18T13:33:24.091Z,40.70
2023-01-18T13:35:54.494Z,39.87
2023-01-18T13:38:40.215Z,38.70
2023-01-18T13:41:12.161Z,37.50
2023-01-18T13:44:05.066Z,41.47
2023-01-18T13:46:35.473Z,40.10
2023-01-18T13:49:37.263Z,45.83
2023-01-18T13:52:31.619Z,44.63
2023-01-18T13:55:05.433Z,46.77
2023-01-18T13:57:35.762Z,42.70
2023-01-18T14:00:05.315Z,52.63
2023-01-18T14:02:36.021Z,45.23
2023-01-18T14:05:09.142Z,48.77
2023-01-18T14:07:42.356Z,44.97
2023-01-18T14:10:25.211Z,43.20
2023-01-18T14:12:55.678Z,47.00
2023-01-18T14:15:30.216Z,49.47
2023-01-18T14:17:59.423Z,45.73
2023-01-18T14:21:00.272Z,52.73
2023-01-18T14:24:11.296Z,44.87
2023-01-18T14:26:40.524Z,41.87
2023-01-18T14:29:13.273Z,55.77
2023-01-18T14:31:43.931Z,43.77
2023-01-18T14:34:45.187Z,49.60
2023-01-18T14:37:27.206Z,39.37
2023-01-18T14:40:18.810Z,41.30
2023-01-18T14:42:52.025Z,41.87
2023-01-18T14:45:27.543Z,43.90
2023-01-18T14:47:56.537Z,38.13
2023-01-18T14:50:24.970Z,37.33
2023-01-18T14:52:53.560Z,32.83
2023-01-18T14:55:25.651Z,33.83
2023-01-18T14:57:53.904Z,37.87
2023-01-18T15:00:23.486Z,36.50
2023-01-18T15:02:53.459Z,38.87
2023-01-18T15:05:21.880Z,42.73
2023-01-18T15:07:53.134Z,34.10
2023-01-18T15:10:21.495Z,35.90
2023-01-18T15:12:50.655Z,41.20
2023-01-18T15:15:22.305Z,54.23
2023-01-18T15:17:52.443Z,43.23
2023-01-18T15:20:20.781Z,48.57
2023-01-18T15:22:51.042Z,45.90
2023-01-18T15:25:20.930Z,41.80
2023-01-18T15:27:51.399Z,40.00
2023-01-18T15:30:20.716Z,34.50
2023-01-18T15:32:49.192Z,33.93
2023-01-18T15:35:19.034Z,35.23
2023-01-18T15:37:47.303Z,40.57
2023-01-18T15:40:26.971Z,33.83
2023-01-18T15:43:04.254Z,35.33
2023-01-18T15:45:34.184Z,28.50
2023-01-18T15:48:03.409Z,29.53
2023-01-18T15:50:36.617Z,33.87
2023-01-18T15:53:12.025Z,33.67
2023-01-18T15:55:41.830Z,30.57
2023-01-18T15:58:13.104Z,30.57
2023-01-18T16:00:43.113Z,25.83
2023-01-18T16:03:19.325Z,25.67
2023-01-18T16:06:01.088Z,32.77
2023-01-18T16:08:29.462Z,25.00
2023-01-18T16:10:57.926Z,27.07
2023-01-18T16:13:37.025Z,25.17
2023-01-18T16:16:22.848Z,19.80
2023-01-18T16:18:53.263Z,20.87
2023-01-18T16:21:27.492Z,24.20
2023-01-18T16:23:56.662Z,25.63
2023-01-18T16:26:26.809Z,22.17
2023-01-18T16:28:55.115Z,20.70
2023-01-18T16:31:24.321Z,23.73
2023-01-18T16:33:52.682Z,22.90
2023-01-18T16:36:21.038Z,24.43
2023-01-18T16:38:50.665Z,28.07
2023-01-18T16:41:19.157Z,29.27
2023-01-18T16:43:48.252Z,28.23
2023-01-18T16:46:16.616Z,32.37
2023-01-18T16:48:44.961Z,29.93
2023-01-18T16:51:16.189Z,27.63
2023-01-18T16:53:44.476Z,30.87
2023-01-18T16:56:16.854Z,29.70
2023-01-18T16:58:45.281Z,28.03
2023-01-18T17:01:14.550Z,27.83
2023-01-18T17:03:42.989Z,26.93
2023-01-18T17:06:14.521Z,27.43
2023-01-18T17:08:42.848Z,29.03
2023-01-18T17:11:11.999Z,27.67
2023-01-18T17:13:41.687Z,27.50
2023-01-18T17:16:13.553Z,28.70
2023-01-18T17:18:41.806Z,29.87
2023-01-18T17:21:11.191Z,24.00
2023-01-18T17:23:40.123Z,24.57
2023-01-18T17:26:08.713Z,24.43
2023-01-18T17:28:36.964Z,25.47
2023-01-18T17:31:07.064Z,26.17
2023-01-18T17:33:38.566Z,29.03
2023-01-18T17:36:09.012Z,31.57
2023-01-18T17:38:37.661Z,24.80
2023-01-18T17:41:08.232Z,24.73
2023-01-18T17:43:37.897Z,25.47
2023-01-18T17:46:07.871Z,21.90
2023-01-18T17:48:36.244Z,25.67
2023-01-18T17:51:06.567Z,24.97
2023-01-18T17:53:34.825Z,21.63
2023-01-18T17:56:03.774Z,19.33
2023-01-18T17:58:32.401Z,19.37
2023-01-18T18:01:07.747Z,18.80
2023-01-18T18:03:35.996Z,20.00
2023-01-18T18:06:04.293Z,18.27
2023-01-18T18:08:32.778Z,18.37
2023-01-18T18:11:02.399Z,20.77
2023-01-18T18:13:30.664Z,19.03
2023-01-18T18:15:59.055Z,18.20
2023-01-18T18:18:28.713Z,18.47
2023-01-18T18:21:00.263Z,23.27
2023-01-18T18:23:28.741Z,19.67
2023-01-18T18:25:57.182Z,19.77
2023-01-18T18:28:27.499Z,21.27
2023-01-18T18:30:56.766Z,20.73
2023-01-18T18:33:25.813Z,21.87
2023-01-18T18:35:55.616Z,17.00
2023-01-18T18:38:24.083Z,17.30
2023-01-18T18:40:52.459Z,17.93
2023-01-18T18:43:20.720Z,19.57
2023-01-18T18:45:49.129Z,19.10
2023-01-18T18:48:17.403Z,18.23
2023-01-18T18:50:46.889Z,22.47
2023-01-18T18:53:19.567Z,20.10
2023-01-18T18:55:49.691Z,26.20
2023-01-18T18:58:17.933Z,19.73
2023-01-18T19:00:47.026Z,22.37
2023-01-18T19:03:15.374Z,19.03
2023-01-18T19:05:43.672Z,19.50
2023-01-18T19:08:11.967Z,21.23
2023-01-18T19:10:41.681Z,23.00
2023-01-18T19:13:10.729Z,25.83
2023-01-18T19:15:39.055Z,30.63
2023-01-18T19:18:07.551Z,26.00
2023-01-18T19:20:35.868Z,25.47
2023-01-18T19:23:04.227Z,32.23
2023-01-18T19:25:32.684Z,36.37
2023-01-18T19:28:02.349Z,32.70
2023-01-18T19:30:31.592Z,33.93
2023-01-18T19:33:01.147Z,35.53
2023-01-18T19:35:30.823Z,34.20
2023-01-18T19:38:00.910Z,27.47
2023-01-18T19:40:29.216Z,28.30
2023-01-18T19:42:59.900Z,30.10
2023-01-18T19:45:30.167Z,23.90
2023-01-18T19:47:59.721Z,26.17
2023-01-18T19:50:29.463Z,25.07
2023-01-18T19:52:58.242Z,24.97
2023-01-18T19:55:26.742Z,24.53
2023-01-18T19:57:56.762Z,28.43
2023-01-18T20:00:25.879Z,24.33
2023-01-18T20:02:55.681Z,25.00
2023-01-18T20:05:24.008Z,28.13
2023-01-18T20:07:52.435Z,28.90
2023-01-18T20:10:20.936Z,41.37
2023-01-18T20:12:49.507Z,40.97
2023-01-18T20:15:19.083Z,45.30
2023-01-18T20:17:47.380Z,45.33
2023-01-18T20:20:24.282Z,40.57
2023-01-18T20:23:00.237Z,45.90
2023-01-18T20:25:28.799Z,47.40
2023-01-18T20:27:57.085Z,43.43
2023-01-18T20:30:25.492Z,44.50
2023-01-18T20:32:53.894Z,38.80
2023-01-18T20:35:23.630Z,39.10
2023-01-18T20:37:52.208Z,37.90
2023-01-18T20:40:20.732Z,43.40
2023-01-18T20:42:49.039Z,37.83
2023-01-18T20:45:17.524Z,43.40
2023-01-18T20:47:45.898Z,48.33
2023-01-18T20:50:14.220Z,42.57
2023-01-18T20:52:44.791Z,42.77
2023-01-18T20:55:14.866Z,45.83
2023-01-18T20:57:43.188Z,47.57
2023-01-18T21:00:12.846Z,51.17
2023-01-18T21:02:41.716Z,48.17
2023-01-18T21:05:10.543Z,45.60
2023-01-18T21:07:40.805Z,43.53
2023-01-18T21:10:12.563Z,42.53
2023-01-18T21:12:41.471Z,41.43
2023-01-18T21:15:10.479Z,38.07
2023-01-18T21:17:39.776Z,37.27
2023-01-18T21:20:09.292Z,36.23
2023-01-18T21:22:37.562Z,32.10
2023-01-18T21:25:06.499Z,33.07
2023-01-18T21:27:36.654Z,30.53
2023-01-18T21:30:05.427Z,32.03
2023-01-18T21:32:33.715Z,32.47
2023-01-18T21:35:02.162Z,36.10
2023-01-18T21:37:30.454Z,30.60
2023-01-18T21:40:00.771Z,33.77
2023-01-18T21:42:46.619Z,31.93
2023-01-18T21:45:33.980Z,34.80
2023-01-18T21:48:07.361Z,33.47
2023-01-18T21:50:53.106Z,34.20
2023-01-18T21:53:38.872Z,35.80
2023-01-18T21:56:07.644Z,33.97
2023-01-18T21:58:53.985Z,36.23
2023-01-18T22:01:24.798Z,35.43
2023-01-18T22:04:10.750Z,35.53
2023-01-18T22:06:39.081Z,36.47
2023-01-18T22:09:07.836Z,33.83
2023-01-18T22:11:36.139Z,39.30
2023-01-18T22:14:05.019Z,36.23
2023-01-18T22:16:34.687Z,37.50
2023-01-18T22:19:04.890Z,38.87
2023-01-18T22:21:33.461Z,40.17
2023-01-18T22:24:01.686Z,41.63
2023-01-18T22:26:30.696Z,40.57
2023-01-18T22:28:59.119Z,41.60
2023-01-18T22:31:27.594Z,42.90
2023-01-18T22:33:58.209Z,44.37
2023-01-18T22:36:27.224Z,48.63
2023-01-18T22:38:55.511Z,43.67
2023-01-18T22:41:24.405Z,48.60
2023-01-18T22:43:53.493Z,46.70
2023-01-18T22:46:22.291Z,50.40
2023-01-18T22:48:50.587Z,48.17
2023-01-18T22:51:21.412Z,44.20
2023-01-18T22:53:49.693Z,48.17
2023-01-18T22:56:19.084Z,44.73
2023-01-18T22:58:47.495Z,45.07
2023-01-18T23:01:16.941Z,46.70
2023-01-18T23:03:45.439Z,47.07
2023-01-18T23:06:13.769Z,47.57
2023-01-18T23:08:46.203Z,44.20
2023-01-18T23:11:15.555Z,44.00
2023-01-18T23:13:44.744Z,46.13
2023-01-18T23:16:32.206Z,44.70
2023-01-18T23:19:01.714Z,47.63
2023-01-18T23:21:29.999Z,48.70
2023-01-18T23:23:59.707Z,45.50
2023-01-18T23:26:28.027Z,42.63
2023-01-18T23:28:56.357Z,47.67
2023-01-18T23:31:24.662Z,38.13
2023-01-18T23:33:53.129Z,41.23
2023-01-18T23:36:23.646Z,41.53
2023-01-18T23:39:09.356Z,42.93
2023-01-18T23:41:56.382Z,39.37
2023-01-18T23:44:42.150Z,38.80
2023-01-18T23:47:27.646Z,40.47
2023-01-18T23:50:13.340Z,38.23
2023-01-18T23:52:58.727Z,35.60
2023-01-18T23:55:27.075Z,37.87
2023-01-18T23:57:56.767Z,36.13
